Station Historical Data
Daily Summary for April 19, 2017 Units:  English    Metric   Both
« Previous Day
Next Day »
Daily Weekly Monthly Yearly Custom
  High: Low: Average:
Temperature: 62.2 °F 47.1 °F 56.6 °F
Dew Point: 55.7 °F 36.0 °F 48.3 °F
Humidity: 93% 54% 75%
Wind Speed: 18.0mph 0.0mph 3.9mph
Wind Gust: 21.0mph - -
Wind- - South
Pressure: 30.23 in 29.98 in -
Precipitation: 0.00 in    
Historical Graphs
 
 
Tabular Data for April 19, 2017
Time Temperature Dew Point Pressure Wind Wind Speed Wind Gust Humidity Rainfall Rate (Hourly)
00:04 49.1 °F 37.8 °F 30.22 in Calm   2.0 mph 65% 0.00 in
00:09 49.3 °F 38.0 °F 30.23 in ENE 1.0 mph 5.0 mph 65% 0.00 in
00:14 49.2 °F 37.5 °F 30.22 in ENE 1.0 mph 2.0 mph 64% 0.00 in
00:19 49.2 °F 37.5 °F 30.22 in Calm   2.0 mph 64% 0.00 in
00:24 49.1 °F 37.4 °F 30.22 in ESE 1.0 mph 3.0 mph 64% 0.00 in
00:29 49.1 °F 37.4 °F 30.22 in Calm   3.0 mph 64% 0.00 in
00:34 49.1 °F 37.4 °F 30.22 in Calm   2.0 mph 64% 0.00 in
00:39 48.2 °F 37.0 °F 30.22 in Calm   3.0 mph 65% 0.00 in
00:44 48.3 °F 37.1 °F 30.22 in Calm   2.0 mph 65% 0.00 in
00:49 48.4 °F 37.2 °F 30.22 in Calm   2.0 mph 65% 0.00 in
00:54 48.3 °F 37.1 °F 30.22 in Calm   2.0 mph 65% 0.00 in
00:59 48.5 °F 36.9 °F 30.22 in Calm   3.0 mph 64% 0.00 in
01:04 48.4 °F 36.8 °F 30.21 in East 1.0 mph 5.0 mph 64% 0.00 in
01:09 48.2 °F 36.6 °F 30.21 in East 1.0 mph 5.0 mph 64% 0.00 in
01:14 47.9 °F 36.3 °F 30.20 in East 1.0 mph 2.0 mph 64% 0.00 in
01:19 48.3 °F 36.7 °F 30.20 in ENE 1.0 mph 3.0 mph 64% 0.00 in
01:24 48.4 °F 36.4 °F 30.21 in Calm   3.0 mph 63% 0.00 in
01:29 48.3 °F 36.3 °F 30.20 in East 2.0 mph 2.0 mph 63% 0.00 in
01:34 48.3 °F 36.3 °F 30.20 in East 1.0 mph 2.0 mph 63% 0.00 in
01:39 47.9 °F 36.3 °F 30.20 in Calm     64% 0.00 in
01:44 47.6 °F 36.0 °F 30.20 in Calm     64% 0.00 in
01:49 47.8 °F 36.2 °F 30.20 in East 1.0 mph 2.0 mph 64% 0.00 in
01:59 47.3 °F 36.1 °F 30.19 in Calm   3.0 mph 65% 0.00 in
02:04 47.1 °F 36.3 °F 30.18 in Calm   3.0 mph 66% 0.00 in
02:09 47.3 °F 36.5 °F 30.18 in ESE 1.0 mph 3.0 mph 66% 0.00 in
02:14 47.5 °F 36.3 °F 30.18 in Calm   1.0 mph 65% 0.00 in
02:19 47.7 °F 36.5 °F 30.17 in ESE 1.0 mph 2.0 mph 65% 0.00 in
02:24 48.0 °F 36.4 °F 30.17 in Calm   4.0 mph 64% 0.00 in
02:29 48.1 °F 36.5 °F 30.17 in Calm   2.0 mph 64% 0.00 in
02:34 48.3 °F 36.7 °F 30.17 in ESE 1.0 mph 3.0 mph 64% 0.00 in
02:39 48.5 °F 36.5 °F 30.16 in ESE 1.0 mph 2.0 mph 63% 0.00 in
02:44 48.8 °F 36.8 °F 30.16 in ESE 1.0 mph 3.0 mph 63% 0.00 in
02:49 49.4 °F 36.9 °F 30.16 in SE 2.0 mph 7.0 mph 62% 0.00 in
02:54 49.9 °F 37.4 °F 30.16 in SE 2.0 mph 7.0 mph 62% 0.00 in
02:59 50.2 °F 37.3 °F 30.15 in SE 2.0 mph 5.0 mph 61% 0.00 in
03:04 50.5 °F 37.1 °F 30.15 in SE 2.0 mph 5.0 mph 60% 0.00 in
03:09 50.6 °F 37.6 °F 30.14 in SE 2.0 mph 5.0 mph 61% 0.00 in
03:14 50.7 °F 37.3 °F 30.14 in SE 3.0 mph 3.0 mph 60% 0.00 in
03:19 50.8 °F 37.4 °F 30.14 in SE 2.0 mph 4.0 mph 60% 0.00 in
03:24 50.9 °F 37.1 °F 30.14 in SE 1.0 mph 4.0 mph 59% 0.00 in
03:29 50.9 °F 37.1 °F 30.14 in Calm     59% 0.00 in
03:34 50.9 °F 37.1 °F 30.14 in Calm     59% 0.00 in
03:39 50.9 °F 37.5 °F 30.14 in Calm     60% 0.00 in
03:44 50.8 °F 37.4 °F 30.14 in Calm     60% 0.00 in
03:49 50.8 °F 37.0 °F 30.14 in Calm     59% 0.00 in
03:54 50.8 °F 37.4 °F 30.14 in Calm     60% 0.00 in
03:59 50.8 °F 37.8 °F 30.13 in Calm     61% 0.00 in
04:04 50.8 °F 37.8 °F 30.13 in Calm     61% 0.00 in
04:09 50.9 °F 37.9 °F 30.13 in Calm     61% 0.00 in
04:14 51.0 °F 38.0 °F 30.12 in Calm     61% 0.00 in
04:19 51.0 °F 38.0 °F 30.12 in Calm     61% 0.00 in
04:24 51.0 °F 38.0 °F 30.12 in Calm     61% 0.00 in
04:29 51.2 °F 38.2 °F 30.12 in Calm     61% 0.00 in
04:34 51.4 °F 38.4 °F 30.12 in Calm     61% 0.00 in
04:39 51.5 °F 38.5 °F 30.12 in Calm     61% 0.00 in
04:44 51.5 °F 38.5 °F 30.12 in Calm     61% 0.00 in
04:49 51.8 °F 38.8 °F 30.11 in Calm     61% 0.00 in
04:54 52.3 °F 39.2 °F 30.11 in Calm   3.0 mph 61% 0.00 in
04:59 53.1 °F 39.6 °F 30.11 in Calm   3.0 mph 60% 0.00 in
05:04 53.5 °F 39.9 °F 30.11 in Calm   2.0 mph 60% 0.00 in
05:09 53.9 °F 40.3 °F 30.11 in Calm   2.0 mph 60% 0.00 in
05:14 54.7 °F 41.1 °F 30.11 in South 1.0 mph 5.0 mph 60% 0.00 in
05:19 55.6 °F 41.5 °F 30.11 in SSW 2.0 mph 5.0 mph 59% 0.00 in
05:24 56.4 °F 41.8 °F 30.11 in SSW 2.0 mph 5.0 mph 58% 0.00 in
05:29 57.3 °F 42.2 °F 30.11 in South 5.0 mph 7.0 mph 57% 0.00 in
05:34 58.2 °F 42.1 °F 30.10 in South 7.0 mph 8.0 mph 55% 0.00 in
05:39 58.6 °F 42.5 °F 30.10 in SSE 5.0 mph 9.0 mph 55% 0.00 in
05:44 59.2 °F 42.6 °F 30.10 in South 5.0 mph 15.0 mph 54% 0.00 in
05:49 59.5 °F 42.8 °F 30.10 in South 5.0 mph 15.0 mph 54% 0.00 in
05:54 59.5 °F 43.3 °F 30.09 in South 7.0 mph 10.0 mph 55% 0.00 in
05:59 59.6 °F 43.4 °F 30.10 in South 3.0 mph 8.0 mph 55% 0.00 in
06:04 59.8 °F 43.6 °F 30.10 in SSW 7.0 mph 11.0 mph 55% 0.00 in
06:09 59.8 °F 44.1 °F 30.09 in South 5.0 mph 14.0 mph 56% 0.00 in
06:14 59.8 °F 44.1 °F 30.09 in South 6.0 mph 14.0 mph 56% 0.00 in
06:19 60.2 °F 44.0 °F 30.09 in South 6.0 mph 17.0 mph 55% 0.00 in
06:24 60.2 °F 43.5 °F 30.09 in South 7.0 mph 17.0 mph 54% 0.00 in
06:29 60.4 °F 43.7 °F 30.09 in South 6.0 mph 13.0 mph 54% 0.00 in
06:34 60.4 °F 43.7 °F 30.09 in South 5.0 mph 12.0 mph 54% 0.00 in
06:39 60.4 °F 43.7 °F 30.08 in SSE 9.0 mph 13.0 mph 54% 0.00 in
06:44 60.6 °F 43.9 °F 30.09 in South 7.0 mph 18.0 mph 54% 0.00 in
06:49 60.5 °F 44.2 °F 30.08 in SSE 5.0 mph 10.0 mph 55% 0.00 in
06:54 60.7 °F 43.9 °F 30.08 in South 5.0 mph 13.0 mph 54% 0.00 in
06:59 60.9 °F 44.6 °F 30.08 in SSW 5.0 mph 12.0 mph 55% 0.00 in
07:04 61.0 °F 44.7 °F 30.08 in SSE 6.0 mph 13.0 mph 55% 0.00 in
07:09 61.0 °F 44.7 °F 30.08 in South 7.0 mph 13.0 mph 55% 0.00 in
07:14 61.1 °F 44.3 °F 30.08 in South 7.0 mph 14.0 mph 54% 0.00 in
07:19 61.3 °F 45.0 °F 30.08 in SSW 6.0 mph 10.0 mph 55% 0.00 in
07:24 61.4 °F 45.1 °F 30.09 in South 7.0 mph 12.0 mph 55% 0.00 in
07:29 61.5 °F 45.2 °F 30.08 in South 4.0 mph 13.0 mph 55% 0.00 in
07:34 61.5 °F 45.2 °F 30.08 in SSE 5.0 mph 13.0 mph 55% 0.00 in
07:39 61.5 °F 45.2 °F 30.07 in South 6.0 mph 13.0 mph 55% 0.00 in
07:44 61.6 °F 45.3 °F 30.08 in South 6.0 mph 16.0 mph 55% 0.00 in
07:49 61.9 °F 45.1 °F 30.08 in SSE 5.0 mph 16.0 mph 54% 0.00 in
07:54 62.1 °F 45.2 °F 30.08 in SSW 6.0 mph 17.0 mph 54% 0.00 in
07:59 62.2 °F 45.8 °F 30.07 in South 10.0 mph 17.0 mph 55% 0.00 in
08:04 62.1 °F 45.7 °F 30.08 in South 8.0 mph 17.0 mph 55% 0.00 in
08:09 62.0 °F 45.6 °F 30.08 in SSW 7.0 mph 19.0 mph 55% 0.00 in
08:14 61.9 °F 46.0 °F 30.07 in SSW 3.0 mph 16.0 mph 56% 0.00 in
08:19 61.9 °F 46.0 °F 30.08 in South 6.0 mph 12.0 mph 56% 0.00 in
08:24 61.9 °F 46.0 °F 30.08 in SSW 8.0 mph 14.0 mph 56% 0.00 in
08:29 61.6 °F 47.6 °F 30.08 in SSW 8.0 mph 18.0 mph 60% 0.00 in
08:34 60.6 °F 48.8 °F 30.08 in SSW 8.0 mph 18.0 mph 65% 0.01 in
08:39 59.4 °F 48.8 °F 30.08 in South 9.0 mph 18.0 mph 68% 0.01 in
08:44 59.0 °F 48.8 °F 30.08 in SSW 8.0 mph 18.0 mph 69% 0.01 in
08:49 59.2 °F 48.6 °F 30.07 in SSW 8.0 mph 12.0 mph 68% 0.01 in
08:54 59.3 °F 48.7 °F 30.07 in SSW 7.0 mph 15.0 mph 68% 0.01 in
08:59 59.5 °F 48.9 °F 30.07 in South 18.0 mph 18.0 mph 68% 0.01 in
09:04 59.5 °F 48.9 °F 30.08 in SSW 5.0 mph 17.0 mph 68% 0.02 in
09:09 58.9 °F 49.5 °F 30.08 in SSW 6.0 mph 16.0 mph 71% 0.03 in
09:14 58.0 °F 49.4 °F 30.09 in SSW 7.0 mph 17.0 mph 73% 0.06 in
09:19 56.9 °F 49.8 °F 30.08 in SSW 7.0 mph 17.0 mph 77% 0.09 in
09:24 56.0 °F 49.2 °F 30.08 in SSW 6.0 mph 15.0 mph 78% 0.10 in
09:29 55.7 °F 49.6 °F 30.08 in SSW 4.0 mph 11.0 mph 80% 0.11 in
09:34 55.3 °F 49.6 °F 30.07 in SSW 3.0 mph 8.0 mph 81% 0.14 in
09:39 55.3 °F 49.9 °F 30.07 in South 2.0 mph 5.0 mph 82% 0.14 in
09:44 55.5 °F 50.1 °F 30.07 in South 6.0 mph 6.0 mph 82% 0.15 in
09:49 55.7 °F 50.0 °F 30.06 in South 3.0 mph 6.0 mph 81% 0.15 in
09:54 55.8 °F 50.1 °F 30.06 in South 3.0 mph 6.0 mph 81% 0.15 in
09:59 55.9 °F 50.5 °F 30.07 in South 3.0 mph 5.0 mph 82% 0.17 in
10:04 56.0 °F 50.6 °F 30.07 in South 1.0 mph 4.0 mph 82% 0.18 in
10:09 55.7 °F 50.6 °F 30.06 in South 2.0 mph 6.0 mph 83% 0.19 in
10:14 55.8 °F 50.4 °F 30.07 in SSW 3.0 mph 7.0 mph 82% 0.17 in
10:19 56.0 °F 50.6 °F 30.07 in SSW 3.0 mph 7.0 mph 82% 0.16 in
10:24 56.4 °F 51.0 °F 30.07 in SSW 3.0 mph 10.0 mph 82% 0.17 in
10:29 56.9 °F 51.1 °F 30.07 in SSW 4.0 mph 12.0 mph 81% 0.16 in
10:34 57.0 °F 51.2 °F 30.07 in South 3.0 mph 14.0 mph 81% 0.13 in
10:39 56.8 °F 51.0 °F 30.07 in SW 8.0 mph 10.0 mph 81% 0.14 in
10:44 56.9 °F 51.5 °F 30.07 in SSW 4.0 mph 10.0 mph 82% 0.14 in
10:49 57.3 °F 51.9 °F 30.06 in SSW 4.0 mph 8.0 mph 82% 0.14 in
10:54 57.8 °F 52.0 °F 30.06 in SSW 4.0 mph 8.0 mph 81% 0.14 in
10:59 58.0 °F 51.9 °F 30.06 in SSW 5.0 mph 10.0 mph 80% 0.12 in
11:04 58.6 °F 52.1 °F 30.06 in SSW 5.0 mph 10.0 mph 79% 0.09 in
11:09 59.1 °F 51.9 °F 30.06 in SE 4.0 mph 16.0 mph 77% 0.08 in
11:14 59.5 °F 51.2 °F 30.05 in SW 9.0 mph 18.0 mph 74% 0.07 in
11:19 59.6 °F 51.3 °F 30.05 in SW 9.0 mph 12.0 mph 74% 0.05 in
11:24 59.7 °F 51.0 °F 30.05 in SW 4.0 mph 15.0 mph 73% 0.03 in
11:29 59.7 °F 51.0 °F 30.05 in SSW 8.0 mph 13.0 mph 73% 0.03 in
11:34 59.6 °F 51.3 °F 30.05 in SW 7.0 mph 19.0 mph 74% 0.02 in
11:39 59.4 °F 51.8 °F 30.05 in SSW 9.0 mph 17.0 mph 76% 0.01 in
11:44 59.8 °F 51.9 °F 30.05 in South 8.0 mph 17.0 mph 75% 0.00 in
11:49 59.5 °F 51.6 °F 30.05 in SSW 8.0 mph 18.0 mph 75% 0.00 in
11:54 59.4 °F 51.5 °F 30.05 in SSW 8.0 mph 18.0 mph 75% 0.00 in
11:59 59.3 °F 51.4 °F 30.04 in SSW 7.0 mph 18.0 mph 75% 0.00 in
12:04 59.5 °F 51.2 °F 30.04 in South 7.0 mph 19.0 mph 74% 0.00 in
12:09 59.8 °F 51.5 °F 30.03 in SSE 7.0 mph 17.0 mph 74% 0.00 in
12:14 59.9 °F 51.6 °F 30.04 in South 11.0 mph 14.0 mph 74% 0.00 in
12:19 59.9 °F 50.8 °F 30.04 in South 8.0 mph 17.0 mph 72% 0.00 in
12:24 59.8 °F 51.5 °F 30.04 in SSW 7.0 mph 18.0 mph 74% 0.00 in
12:29 59.8 °F 51.5 °F 30.03 in SSW 13.0 mph 15.0 mph 74% 0.00 in
12:34 59.9 °F 51.2 °F 30.03 in WSW 11.0 mph 18.0 mph 73% 0.00 in
12:39 59.9 °F 51.6 °F 30.03 in SSW 9.0 mph 18.0 mph 74% 0.00 in
12:44 59.8 °F 51.5 °F 30.02 in South 8.0 mph 17.0 mph 74% 0.00 in
12:49 59.6 °F 51.3 °F 30.03 in South 8.0 mph 20.0 mph 74% 0.00 in
12:54 59.6 °F 51.3 °F 30.02 in South 8.0 mph 20.0 mph 74% 0.00 in
12:59 59.7 °F 51.4 °F 30.02 in SSW 9.0 mph 21.0 mph 74% 0.00 in
13:04 59.7 °F 51.4 °F 30.02 in South 7.0 mph 20.0 mph 74% 0.00 in
13:09 59.4 °F 51.8 °F 30.03 in WSW 4.0 mph 12.0 mph 76% 0.00 in
13:14 59.2 °F 52.0 °F 30.03 in South 10.0 mph 16.0 mph 77% 0.00 in
13:19 58.9 °F 52.1 °F 30.03 in SW 9.0 mph 14.0 mph 78% 0.01 in
13:24 58.7 °F 52.2 °F 30.03 in South 3.0 mph 12.0 mph 79% 0.01 in
13:29 58.6 °F 52.1 °F 30.03 in SSW 7.0 mph 13.0 mph 79% 0.01 in
13:34 58.4 °F 51.9 °F 30.02 in SSW 7.0 mph 14.0 mph 79% 0.02 in
13:39 58.3 °F 52.2 °F 30.03 in SSW 6.0 mph 14.0 mph 80% 0.03 in
13:44 58.1 °F 52.3 °F 30.03 in SSW 7.0 mph 15.0 mph 81% 0.04 in
13:49 57.9 °F 52.4 °F 30.03 in SSW 7.0 mph 15.0 mph 82% 0.05 in
13:54 57.7 °F 52.6 °F 30.03 in SSW 7.0 mph 13.0 mph 83% 0.05 in
13:59 57.5 °F 52.4 °F 30.02 in SSW 6.0 mph 20.0 mph 83% 0.06 in
14:04 57.6 °F 52.8 °F 30.02 in SSW 7.0 mph 20.0 mph 84% 0.06 in
14:09 58.1 °F 53.3 °F 30.02 in SSW 7.0 mph 17.0 mph 84% 0.06 in
14:14 58.8 °F 54.3 °F 30.02 in SSW 6.0 mph 17.0 mph 85% 0.05 in
14:19 58.7 °F 53.5 °F 30.02 in SSW 7.0 mph 17.0 mph 83% 0.05 in
14:24 58.6 °F 53.5 °F 30.02 in SE 5.0 mph 17.0 mph 83% 0.05 in
14:29 59.2 °F 54.0 °F 30.02 in SSW 8.0 mph 16.0 mph 83% 0.05 in
14:34 59.1 °F 53.6 °F 30.01 in South 6.0 mph 19.0 mph 82% 0.04 in
14:39 59.4 °F 53.9 °F 30.02 in South 15.0 mph 19.0 mph 82% 0.03 in
14:44 59.3 °F 53.5 °F 30.02 in WSW 11.0 mph 15.0 mph 81% 0.02 in
14:49 59.3 °F 53.1 °F 30.02 in South 6.0 mph 18.0 mph 80% 0.01 in
14:54 59.2 °F 53.4 °F 30.02 in South 3.0 mph 13.0 mph 81% 0.01 in
14:59 59.2 °F 53.4 °F 30.01 in SW 8.0 mph 18.0 mph 81% 0.00 in
15:04 59.2 °F 53.4 °F 30.01 in South 5.0 mph 18.0 mph 81% 0.00 in
15:09 59.1 °F 53.3 °F 30.02 in South 6.0 mph 14.0 mph 81% 0.00 in
15:14 59.3 °F 53.5 °F 30.01 in South 6.0 mph 14.0 mph 81% 0.00 in
15:19 59.5 °F 53.7 °F 30.01 in SSW 6.0 mph 14.0 mph 81% 0.00 in
15:24 59.5 °F 53.3 °F 30.00 in South 7.0 mph 21.0 mph 80% 0.00 in
15:29 59.8 °F 53.6 °F 30.00 in WSW 10.0 mph 15.0 mph 80% 0.00 in
15:34 60.0 °F 53.5 °F 29.99 in SSW 12.0 mph 17.0 mph 79% 0.00 in
15:39 60.3 °F 53.4 °F 29.99 in South 11.0 mph 19.0 mph 78% 0.00 in
15:44 60.7 °F 53.8 °F 30.00 in South 8.0 mph 13.0 mph 78% 0.00 in
15:49 61.1 °F 53.8 °F 29.99 in SSE 11.0 mph 15.0 mph 77% 0.00 in
15:54 61.5 °F 54.2 °F 29.99 in SSW 6.0 mph 18.0 mph 77% 0.00 in
15:59 61.5 °F 53.9 °F 29.99 in SSW 8.0 mph 18.0 mph 76% 0.00 in
16:04 61.6 °F 54.0 °F 29.99 in SSW 7.0 mph 15.0 mph 76% 0.00 in
16:09 61.3 °F 53.7 °F 29.99 in SSW 8.0 mph 16.0 mph 76% 0.00 in
16:14 61.3 °F 53.7 °F 29.99 in South 7.0 mph 15.0 mph 76% 0.00 in
16:19 61.2 °F 53.9 °F 30.00 in WSW 9.0 mph 14.0 mph 77% 0.00 in
16:24 61.0 °F 54.1 °F 29.99 in SSW 7.0 mph 16.0 mph 78% 0.00 in
16:29 61.0 °F 54.1 °F 30.00 in SSW 7.0 mph 16.0 mph 78% 0.00 in
16:34 60.9 °F 54.3 °F 29.99 in SSW 6.0 mph 11.0 mph 79% 0.00 in
16:39 61.1 °F 54.5 °F 29.99 in SSW 7.0 mph 14.0 mph 79% 0.00 in
16:44 61.1 °F 54.5 °F 29.99 in South 5.0 mph 11.0 mph 79% 0.01 in
16:49 61.0 °F 54.8 °F 29.99 in SSW 7.0 mph 9.0 mph 80% 0.01 in
16:54 61.1 °F 54.9 °F 29.99 in South 5.0 mph 8.0 mph 80% 0.01 in
16:59 61.1 °F 54.9 °F 29.99 in SSW 6.0 mph 11.0 mph 80% 0.01 in
17:04 61.2 °F 55.0 °F 29.99 in SSW 5.0 mph 6.0 mph 80% 0.01 in
17:09 61.3 °F 55.1 °F 29.98 in SSW 4.0 mph 8.0 mph 80% 0.01 in
17:14 61.3 °F 55.4 °F 29.98 in SW 7.0 mph 10.0 mph 81% 0.01 in
17:19 61.1 °F 55.2 °F 29.99 in South 2.0 mph 9.0 mph 81% 0.01 in
17:24 61.2 °F 55.3 °F 29.99 in SSW 5.0 mph 15.0 mph 81% 0.01 in
17:29 60.9 °F 55.7 °F 29.99 in SSW 5.0 mph 15.0 mph 83% 0.02 in
17:34 60.7 °F 55.5 °F 29.99 in SW 4.0 mph 9.0 mph 83% 0.02 in
17:39 60.6 °F 55.4 °F 30.00 in WSW 4.0 mph 9.0 mph 83% 0.05 in
17:44 60.1 °F 55.2 °F 30.01 in West 4.0 mph 9.0 mph 84% 0.05 in
17:49 59.4 °F 54.9 °F 30.02 in West 7.0 mph 11.0 mph 85% 0.05 in
17:54 58.3 °F 53.5 °F 30.03 in WSW 7.0 mph 12.0 mph 84% 0.09 in
17:59 57.5 °F 53.3 °F 30.03 in WNW 10.0 mph 11.0 mph 86% 0.09 in
18:04 57.1 °F 53.3 °F 30.02 in WSW 4.0 mph 10.0 mph 87% 0.11 in
18:09 57.0 °F 53.5 °F 30.02 in WSW 2.0 mph 6.0 mph 88% 0.11 in
18:14 57.1 °F 53.6 °F 30.01 in West 2.0 mph 5.0 mph 88% 0.11 in
18:19 57.1 °F 53.6 °F 30.01 in WSW 1.0 mph 4.0 mph 88% 0.11 in
18:24 57.1 °F 53.9 °F 30.01 in WSW 2.0 mph 5.0 mph 89% 0.10 in
18:29 57.2 °F 53.7 °F 30.01 in SW 2.0 mph 5.0 mph 88% 0.10 in
18:34 57.2 °F 53.7 °F 30.01 in WSW 3.0 mph 5.0 mph 88% 0.10 in
18:39 57.3 °F 53.8 °F 30.02 in Calm   3.0 mph 88% 0.07 in
18:44 57.3 °F 54.1 °F 30.02 in Calm   5.0 mph 89% 0.06 in
18:49 57.3 °F 54.1 °F 30.02 in SW 1.0 mph 4.0 mph 89% 0.06 in
18:59 57.5 °F 54.0 °F 30.02 in SW 1.0 mph 3.0 mph 88% 0.01 in
19:04 57.6 °F 54.1 °F 30.03 in SW 3.0 mph 7.0 mph 88% 0.00 in
19:09 57.7 °F 54.2 °F 30.03 in SW 5.0 mph 6.0 mph 88% 0.00 in
19:14 57.7 °F 54.2 °F 30.02 in SW 3.0 mph 7.0 mph 88% 0.00 in
19:19 57.6 °F 54.1 °F 30.02 in SSW 4.0 mph 7.0 mph 88% 0.00 in
19:24 57.5 °F 54.0 °F 30.02 in SW 3.0 mph 7.0 mph 88% 0.00 in
19:29 57.3 °F 53.8 °F 30.03 in SW 3.0 mph 7.0 mph 88% 0.00 in
19:34 57.2 °F 53.7 °F 30.03 in WSW 1.0 mph 6.0 mph 88% 0.00 in
19:39 57.2 °F 53.7 °F 30.03 in WSW 2.0 mph 3.0 mph 88% 0.00 in
19:44 57.1 °F 53.6 °F 30.03 in SW 1.0 mph 5.0 mph 88% 0.00 in
19:49 57.0 °F 53.5 °F 30.04 in SW 3.0 mph 5.0 mph 88% 0.00 in
19:54 56.9 °F 53.4 °F 30.04 in SW 2.0 mph 4.0 mph 88% 0.00 in
19:59 56.8 °F 53.6 °F 30.03 in SW 1.0 mph 4.0 mph 89% 0.00 in
20:04 56.8 °F 53.6 °F 30.03 in SW 1.0 mph 3.0 mph 89% 0.00 in
20:09 56.7 °F 53.5 °F 30.04 in SSW 1.0 mph 3.0 mph 89% 0.00 in
20:14 56.7 °F 53.5 °F 30.03 in SW 1.0 mph 4.0 mph 89% 0.00 in
20:19 56.8 °F 53.6 °F 30.04 in SW 1.0 mph 4.0 mph 89% 0.00 in
20:24 56.7 °F 53.5 °F 30.04 in SW 2.0 mph 2.0 mph 89% 0.00 in
20:29 56.8 °F 53.6 °F 30.04 in Calm   2.0 mph 89% 0.00 in
20:34 56.8 °F 53.6 °F 30.04 in Calm     89% 0.00 in
20:39 56.7 °F 53.5 °F 30.04 in Calm     89% 0.00 in
20:44 56.7 °F 53.8 °F 30.04 in Calm     90% 0.00 in
20:49 56.7 °F 53.8 °F 30.04 in Calm     90% 0.00 in
20:54 56.7 °F 53.8 °F 30.04 in Calm     90% 0.00 in
20:59 56.6 °F 53.7 °F 30.04 in Calm     90% 0.00 in
21:04 56.5 °F 53.6 °F 30.05 in Calm     90% 0.00 in
21:09 56.4 °F 53.5 °F 30.05 in Calm     90% 0.00 in
21:14 56.5 °F 53.6 °F 30.05 in Calm     90% 0.00 in
21:19 56.6 °F 54.0 °F 30.06 in Calm     91% 0.00 in
21:24 56.7 °F 54.1 °F 30.06 in Calm     91% 0.00 in
21:29 56.9 °F 54.3 °F 30.06 in Calm   4.0 mph 91% 0.00 in
21:34 57.0 °F 54.4 °F 30.07 in WSW 1.0 mph 3.0 mph 91% 0.00 in
21:39 57.0 °F 54.4 °F 30.07 in Calm   2.0 mph 91% 0.00 in
21:44 57.0 °F 54.4 °F 30.07 in Calm     91% 0.00 in
21:49 56.8 °F 54.2 °F 30.06 in Calm     91% 0.00 in
21:54 56.6 °F 53.7 °F 30.07 in Calm     90% 0.00 in
21:59 56.4 °F 53.8 °F 30.07 in Calm     91% 0.00 in
22:04 56.0 °F 53.1 °F 30.07 in Calm     90% 0.00 in
22:09 55.9 °F 53.3 °F 30.07 in Calm     91% 0.00 in
22:14 55.6 °F 53.0 °F 30.07 in Calm     91% 0.00 in
22:19 55.2 °F 52.6 °F 30.07 in Calm     91% 0.00 in
22:24 55.2 °F 52.9 °F 30.07 in Calm     92% 0.00 in
22:29 55.3 °F 53.0 °F 30.07 in Calm     92% 0.00 in
22:34 55.2 °F 52.9 °F 30.07 in Calm     92% 0.00 in
22:39 55.2 °F 52.9 °F 30.08 in Calm     92% 0.00 in
22:44 55.4 °F 53.1 °F 30.08 in Calm     92% 0.00 in
22:49 55.2 °F 52.9 °F 30.07 in Calm     92% 0.00 in
22:54 55.4 °F 53.1 °F 30.08 in Calm     92% 0.00 in
22:59 55.5 °F 53.5 °F 30.07 in Calm     93% 0.00 in
23:04 56.0 °F 54.0 °F 30.08 in Calm   2.0 mph 93% 0.00 in
23:09 56.3 °F 54.3 °F 30.08 in NE 3.0 mph 4.0 mph 93% 0.00 in
23:14 56.3 °F 54.3 °F 30.07 in NNE 2.0 mph 6.0 mph 93% 0.00 in
23:19 56.2 °F 53.9 °F 30.07 in NNE 3.0 mph 6.0 mph 92% 0.00 in
23:24 55.9 °F 53.6 °F 30.07 in North 2.0 mph 4.0 mph 92% 0.00 in
23:29 55.7 °F 53.4 °F 30.07 in NNE 2.0 mph 7.0 mph 92% 0.00 in
23:34 55.4 °F 53.1 °F 30.07 in NE 3.0 mph 7.0 mph 92% 0.00 in
23:39 55.3 °F 53.0 °F 30.07 in ENE 4.0 mph 5.0 mph 92% 0.00 in
23:44 55.3 °F 53.0 °F 30.07 in ENE 3.0 mph 5.0 mph 92% 0.00 in
23:49 55.3 °F 53.0 °F 30.07 in NE 2.0 mph 5.0 mph 92% 0.00 in
23:54 55.3 °F 52.7 °F 30.07 in NE 2.0 mph 6.0 mph 91% 0.00 in
23:59 55.4 °F 52.8 °F 30.08 in NE 3.0 mph 4.0 mph 91% 0.00 in
Buffalo, New York, USA
Compliments of Weather Underground - 2.5 mb